Mao, Dominican Republic
Current Conditions -  °F | °C
As of 11:00 PM on Friday 19 Dec 2014 (Local Time) from MDST Reporting Station
Broken Clouds Broken Clouds  
Wind Chill: 20°   Ceiling: 8000
Heat Index: 20°   Visibility: 6mi
Dew Point: 19°   Wind: 0mph
Humidity: 94%   Direction: NA
Pressure: 30.03"   Gusts: NA
Location:  19.56°N, 71.08°W
Report Text: MDST 200300Z 00000KT 9999 SCT016 BKN080 20/19 Q1017
Loading
Personal Weather Stations






























Interactive Weather Map New forecast layout! Learn more

10-Day Weather Forecast

Advertisements
Track Severe Weather on mobile